Главная страница
METAR-TAF:

METAR-TAF

Аэропорты :

Хейдрун, Норвегия

широта: 65-19-30N, долгота: 007-19-36E, высота над уровнем моря: 0 м

Текущие метеонаблюдения

Эта сводка был подготовлена 41 минут назад, в 16:20 UTC
Ветер 16 Узел от юго-восточный
Температура 13°C
Влажность 82%
Давление 1008 hPa
Видимость 10 км и более
Нет облачности ниже 1500 м, и нет кучево-дождевой облачности

METAR: ENHE 221620Z 13016KT CAVOK 13/10 Q1008 W///S3

Время: 19:01 (17:01 UTC)

Прогноз

Эта сводка был подготовлена 3 часа и 1 минут назад, в 14:00 UTC
Прогноз действительный с 22-го 15 UTC до 22-го 24 UTC
Ветер 18 Узел от восточно-юго-восточный
Видимость 10 км и более
Нет облачности ниже 1500 м, и нет кучево-дождевой облачности
изменения
С 22-го 19 UTC до 22-го 21 UTC
Ветер 10 Узел от южный
Вероятность 30%
С 22-го 22 UTC до 22-го 24 UTC
Видимость: 4000 м
Рассеянная облачность на высоте 1200 фута
дождь, Морось,

TAF: ENHE 221400Z 2215/2224 12018KT CAVOK BECMG 2219/2221 18010KT PROB30 2222/2224 4000 RADZ BKN012

Метеонаблюдения и прогнозы для более 4000 аэропортов (сводки METAR и TAF).

Имеющиеся станции представлены на карте желтыми и красными точками.

Чтобы увидеть название станции, наведите на нее мышь.

Затем щелкните, чтобы увидеть метеонаблюдения и метеопрогнозы.

Управление картой: чтобы увеличить масштаб, щелкните зеленые кнопки с черным крестиком; чтобы уменьшить масштаб, щелкните зеленую кнопку с тире; для просмотра соседних карт щелкайте зеленые стрелки.


METAR-TAF: